createdAt,value
2018-05-25T03:01:04.395Z,12.00
2018-05-25T03:02:05.325Z,20.00
2018-05-25T03:03:05.496Z,20.00
2018-05-25T03:04:05.831Z,24.00
2018-05-25T03:05:09.306Z,28.00
2018-05-25T03:06:05.875Z,32.00
2018-05-25T03:07:05.797Z,36.00
2018-05-25T03:08:06.970Z,36.00
2018-05-25T03:09:06.606Z,40.00
2018-05-25T03:10:46.311Z,48.00
2018-05-25T03:13:09.782Z,64.00
2018-05-25T03:17:50.011Z,112.00
2018-05-25T03:18:50.870Z,120.00
2018-05-25T03:20:48.324Z,136.00
2018-05-25T03:21:48.376Z,144.00
2018-05-25T03:22:48.528Z,160.00
2018-05-25T03:23:48.778Z,176.00
2018-05-25T03:24:48.857Z,192.00
2018-05-25T03:25:49.009Z,212.00
2018-05-25T03:26:49.339Z,232.00
2018-05-25T03:27:49.414Z,248.00
2018-05-25T03:28:49.521Z,260.00
2018-05-25T03:29:49.747Z,276.00
2018-05-25T03:30:49.910Z,292.00
2018-05-25T03:31:50.153Z,312.00
2018-05-25T03:32:50.265Z,336.00
2018-05-25T03:33:50.570Z,356.00
2018-05-25T03:34:50.682Z,376.00
2018-05-25T03:35:50.795Z,392.00
2018-05-25T03:36:51.067Z,416.00
2018-05-25T03:37:51.227Z,452.00
2018-05-25T03:38:51.314Z,480.00
2018-05-25T03:39:51.566Z,508.00
2018-05-25T03:40:51.711Z,524.00
2018-05-25T03:41:51.868Z,536.00
2018-05-25T03:42:52.020Z,548.00
2018-05-25T03:43:52.207Z,560.00
2018-05-25T03:44:52.346Z,580.00
2018-05-25T03:45:52.529Z,604.00
2018-05-25T03:46:52.751Z,612.00
2018-05-25T03:47:52.843Z,624.00
2018-05-25T03:48:53.092Z,644.00
2018-05-25T03:49:53.219Z,652.00
2018-05-25T03:50:53.380Z,656.00
2018-05-25T03:51:53.623Z,656.00
2018-05-25T03:52:53.708Z,648.00
2018-05-25T03:53:54.738Z,632.00
2018-05-25T03:54:54.104Z,624.00
2018-05-25T03:55:54.468Z,640.00
2018-05-25T03:56:54.461Z,660.00
2018-05-25T03:57:54.662Z,688.00
2018-05-25T03:58:54.785Z,720.00
2018-05-25T03:59:54.960Z,748.00
2018-05-25T04:00:55.052Z,784.00
2018-05-25T04:01:55.348Z,828.00
2018-05-25T04:02:55.385Z,880.00
2018-05-25T04:03:55.687Z,924.00
2018-05-25T04:04:55.716Z,964.00
2018-05-25T04:05:55.933Z,1008.00
2018-05-25T04:06:56.157Z,1044.00
2018-05-25T04:07:56.255Z,1060.00
2018-05-25T04:08:56.479Z,1068.00
2018-05-25T04:09:56.613Z,1084.00
2018-05-25T04:10:56.813Z,1104.00
2018-05-25T04:11:56.923Z,1116.00
2018-05-25T04:12:57.128Z,1124.00
2018-05-25T04:13:57.228Z,1124.00
2018-05-25T04:14:57.367Z,1112.00
2018-05-25T04:15:57.558Z,1096.00
2018-05-25T04:16:57.784Z,1072.00
2018-05-25T04:17:57.996Z,1072.00
2018-05-25T04:18:58.133Z,1108.00
2018-05-25T04:19:58.268Z,1164.00
2018-05-25T04:20:58.424Z,1208.00
2018-05-25T04:21:58.633Z,1248.00
2018-05-25T04:22:58.938Z,1284.00
2018-05-25T04:23:58.971Z,1328.00
2018-05-25T04:24:59.117Z,1388.00
2018-05-25T04:25:59.326Z,1456.00
2018-05-25T04:26:59.420Z,1516.00
2018-05-25T04:27:59.636Z,1564.00
2018-05-25T04:28:59.802Z,1600.00
2018-05-25T04:29:59.920Z,1632.00
2018-05-25T04:31:00.147Z,1652.00
2018-05-25T04:32:00.336Z,1680.00
2018-05-25T04:33:00.440Z,1708.00
2018-05-25T04:34:00.583Z,1724.00
2018-05-25T04:35:00.758Z,1744.00
2018-05-25T04:36:00.937Z,1764.00
2018-05-25T04:37:01.126Z,1772.00
2018-05-25T04:38:01.300Z,1792.00
2018-05-25T04:39:01.443Z,1820.00
2018-05-25T04:40:01.686Z,1852.00
2018-05-25T04:41:01.807Z,1888.00
2018-05-25T04:42:02.044Z,1916.00
2018-05-25T04:43:02.189Z,1940.00
2018-05-25T04:44:02.307Z,1960.00
2018-05-25T04:45:02.517Z,1972.00
2018-05-25T04:46:02.743Z,1980.00
2018-05-25T04:47:03.645Z,1988.00
2018-05-25T04:48:02.969Z,1992.00
2018-05-25T04:49:03.122Z,2004.00
2018-05-25T04:50:03.272Z,2028.00
2018-05-25T04:51:03.469Z,2056.00
2018-05-25T04:52:03.620Z,2092.00
2018-05-25T04:53:03.814Z,2124.00
2018-05-25T04:54:04.003Z,2156.00
2018-05-25T04:55:04.168Z,2180.00
2018-05-25T04:56:04.350Z,2208.00
2018-05-25T04:57:04.445Z,2248.00
2018-05-25T04:58:04.575Z,2288.00
2018-05-25T04:59:04.714Z,2348.00
2018-05-25T05:00:04.933Z,2416.00
2018-05-25T05:01:05.164Z,2484.00
2018-05-25T05:02:05.241Z,2548.00
2018-05-25T05:03:05.430Z,2608.00
2018-05-25T05:04:05.616Z,2652.00
2018-05-25T05:05:05.767Z,2696.00
2018-05-25T05:06:05.985Z,2732.00
2018-05-25T05:07:06.082Z,2768.00
2018-05-25T05:08:06.222Z,2808.00
2018-05-25T05:09:06.451Z,2836.00
2018-05-25T05:10:06.562Z,2856.00
2018-05-25T05:11:06.764Z,2892.00
2018-05-25T05:12:06.949Z,2936.00
2018-05-25T05:13:07.107Z,3008.00
2018-05-25T05:14:07.190Z,3076.00
2018-05-25T05:15:07.461Z,3140.00
2018-05-25T05:16:07.674Z,3176.00
2018-05-25T05:17:07.796Z,3200.00
2018-05-25T05:18:07.957Z,3212.00
2018-05-25T05:19:08.165Z,3224.00
2018-05-25T05:20:08.218Z,3228.00
2018-05-25T05:21:08.416Z,3228.00
2018-05-25T05:22:08.539Z,3228.00
2018-05-25T05:23:08.780Z,3224.00
2018-05-25T05:24:08.974Z,3228.00
2018-05-25T05:25:09.093Z,3224.00
2018-05-25T05:26:09.268Z,3212.00
2018-05-25T05:27:09.472Z,3188.00
2018-05-25T05:28:09.631Z,3164.00
2018-05-25T05:29:09.803Z,3140.00
2018-05-25T05:30:10.013Z,3120.00
2018-05-25T05:31:10.124Z,3108.00
2018-05-25T05:32:10.367Z,3100.00
2018-05-25T05:33:10.453Z,3100.00
2018-05-25T05:34:10.653Z,3120.00
2018-05-25T05:35:10.806Z,3156.00
2018-05-25T05:36:11.002Z,3208.00
2018-05-25T05:37:11.106Z,3280.00
2018-05-25T05:38:11.248Z,3376.00
2018-05-25T05:39:11.431Z,3472.00
2018-05-25T05:40:11.645Z,3560.00
2018-05-25T05:41:11.787Z,3644.00
2018-05-25T05:42:11.989Z,3732.00
2018-05-25T05:43:12.127Z,3812.00
2018-05-25T05:44:12.341Z,3888.00
2018-05-25T05:45:12.502Z,3948.00
2018-05-25T05:46:12.597Z,4004.00
2018-05-25T05:47:12.884Z,4048.00
2018-05-25T05:48:12.982Z,4056.00
2018-05-25T05:49:13.149Z,3988.00
2018-05-25T05:50:13.261Z,3864.00
2018-05-25T05:51:13.427Z,3720.00
2018-05-25T05:52:13.656Z,3624.00
2018-05-25T05:53:13.767Z,3604.00
2018-05-25T05:54:14.034Z,3628.00
2018-05-25T05:55:14.109Z,3688.00
2018-05-25T05:56:14.353Z,3764.00
2018-05-25T05:57:14.460Z,3868.00
2018-05-25T05:58:14.685Z,3992.00
2018-05-25T05:59:14.788Z,4116.00
2018-05-25T06:00:14.920Z,4240.00
2018-05-25T06:01:15.238Z,4356.00
2018-05-25T06:02:15.356Z,4468.00
2018-05-25T06:03:15.469Z,4612.00
2018-05-25T06:04:15.668Z,4804.00
2018-05-25T06:05:15.859Z,5040.00
2018-05-25T06:06:16.014Z,5300.00
2018-05-25T06:07:16.146Z,5572.00
2018-05-25T06:08:16.335Z,5824.00
2018-05-25T06:09:16.450Z,6012.00
2018-05-25T06:10:16.633Z,6172.00
2018-05-25T06:11:16.857Z,6324.00
2018-05-25T06:12:17.007Z,6448.00
2018-05-25T06:13:17.087Z,6580.00
2018-05-25T06:14:17.325Z,6764.00
2018-05-25T06:15:17.473Z,6944.00
2018-05-25T06:16:17.625Z,7120.00
2018-05-25T06:17:17.801Z,7280.00
2018-05-25T06:18:17.943Z,7392.00
2018-05-25T06:19:18.156Z,7436.00
2018-05-25T06:20:18.262Z,7464.00
2018-05-25T06:21:18.396Z,7476.00
2018-05-25T06:22:18.617Z,7492.00
2018-05-25T06:23:18.815Z,7516.00
2018-05-25T06:24:18.960Z,7556.00
2018-05-25T06:25:19.155Z,7592.00
2018-05-25T06:26:19.274Z,7588.00
2018-05-25T06:27:19.405Z,7528.00
2018-05-25T06:28:19.663Z,7428.00
2018-05-25T06:29:19.853Z,7368.00
2018-05-25T06:30:19.948Z,7388.00
2018-05-25T06:31:20.103Z,7408.00
2018-05-25T06:32:20.243Z,7448.00
2018-05-25T06:33:20.403Z,7512.00
2018-05-25T06:34:20.642Z,7588.00
2018-05-25T06:35:20.767Z,7680.00
2018-05-25T06:36:20.927Z,7752.00
2018-05-25T06:37:21.169Z,7828.00
2018-05-25T06:38:21.223Z,7864.00
2018-05-25T06:39:21.460Z,7896.00
2018-05-25T06:40:21.622Z,7924.00
2018-05-25T06:41:21.740Z,7932.00
2018-05-25T06:42:21.854Z,7964.00
2018-05-25T06:43:22.065Z,7972.00
2018-05-25T06:44:22.248Z,7964.00
2018-05-25T06:45:22.357Z,7892.00
2018-05-25T06:46:22.578Z,7852.00
2018-05-25T06:47:22.798Z,7964.00
2018-05-25T06:48:22.894Z,7988.00
2018-05-25T06:49:23.146Z,7984.00
2018-05-25T06:50:23.275Z,7888.00
2018-05-25T06:51:23.422Z,7844.00
2018-05-25T06:52:23.601Z,7888.00
2018-05-25T06:53:23.810Z,7940.00
2018-05-25T06:54:24.014Z,7996.00
2018-05-25T06:55:24.153Z,8032.00
2018-05-25T06:56:24.261Z,8128.00
2018-05-25T06:57:24.380Z,8264.00
2018-05-25T06:58:24.640Z,8404.00
2018-05-25T06:59:24.833Z,8560.00
2018-05-25T07:00:24.988Z,8708.00
2018-05-25T07:01:25.143Z,8800.00
2018-05-25T07:02:25.284Z,8836.00
2018-05-25T07:03:25.497Z,8840.00
2018-05-25T07:04:25.651Z,8852.00
2018-05-25T07:05:25.732Z,8956.00
2018-05-25T07:06:26.002Z,9112.00
2018-05-25T07:07:26.148Z,9312.00
2018-05-25T07:08:26.295Z,9612.00
2018-05-25T07:09:26.477Z,9988.00
2018-05-25T07:10:26.630Z,10352.00
2018-05-25T07:11:26.863Z,10628.00
2018-05-25T07:12:27.029Z,11072.00
2018-05-25T07:13:27.146Z,11528.00
2018-05-25T07:14:27.331Z,11940.00
2018-05-25T07:15:27.467Z,12176.00
2018-05-25T07:16:27.706Z,12080.00
2018-05-25T07:17:27.863Z,11924.00
2018-05-25T07:18:27.910Z,12036.00
2018-05-25T07:19:28.144Z,12056.00
2018-05-25T07:20:28.262Z,12168.00
2018-05-25T07:21:28.421Z,12260.00
2018-05-25T07:22:28.595Z,12280.00
2018-05-25T07:23:28.793Z,12204.00
2018-05-25T07:24:28.909Z,12316.00
2018-05-25T07:25:29.202Z,12428.00
2018-05-25T07:26:29.238Z,12404.00
2018-05-25T07:27:29.466Z,12320.00
2018-05-25T07:28:29.671Z,12084.00
2018-05-25T07:29:29.895Z,11652.00
2018-05-25T07:30:30.038Z,11128.00
2018-05-25T07:31:30.172Z,10588.00
2018-05-25T07:32:30.277Z,10068.00
2018-05-25T07:33:30.501Z,9668.00
2018-05-25T07:34:30.683Z,9388.00
2018-05-25T07:35:30.787Z,9220.00
2018-05-25T07:36:31.044Z,9100.00
2018-05-25T07:37:31.135Z,9012.00
2018-05-25T07:38:31.382Z,8972.00
2018-05-25T07:39:31.474Z,8980.00
2018-05-25T07:40:31.735Z,8660.00
2018-05-25T07:41:31.874Z,8612.00
2018-05-25T07:42:32.001Z,8488.00
2018-05-25T07:43:32.137Z,8712.00
2018-05-25T07:44:32.380Z,8692.00
2018-05-25T07:45:32.442Z,8624.00
2018-05-25T07:46:32.704Z,8320.00
2018-05-25T07:47:32.876Z,8120.00
2018-05-25T07:48:32.956Z,7772.00
2018-05-25T07:49:33.166Z,7528.00
2018-05-25T07:50:33.346Z,7484.00
2018-05-25T07:51:33.560Z,7852.00
2018-05-25T07:52:33.639Z,8324.00
2018-05-25T07:53:33.818Z,8320.00
2018-05-25T07:54:34.026Z,8660.00
2018-05-25T07:55:34.211Z,9244.00
2018-05-25T07:56:34.344Z,9852.00
2018-05-25T07:57:34.564Z,9676.00
2018-05-25T07:58:34.667Z,9172.00
2018-05-25T07:59:34.905Z,8876.00
2018-05-25T08:00:35.013Z,8772.00
2018-05-25T08:01:35.242Z,8924.00
2018-05-25T08:02:35.379Z,9160.00
2018-05-25T08:03:35.573Z,9576.00
2018-05-25T08:04:35.796Z,10256.00
2018-05-25T08:05:35.904Z,10616.00
2018-05-25T08:06:36.089Z,11108.00
2018-05-25T08:07:36.234Z,11520.00
2018-05-25T08:08:36.422Z,11640.00
2018-05-25T08:09:36.553Z,11936.00
2018-05-25T08:10:36.698Z,11956.00
2018-05-25T08:11:36.885Z,12076.00
2018-05-25T08:12:37.042Z,12156.00
2018-05-25T08:13:37.243Z,12552.00
2018-05-25T08:14:37.434Z,12708.00
2018-05-25T08:15:37.619Z,13084.00
2018-05-25T08:16:37.782Z,13196.00
2018-05-25T08:17:37.895Z,13236.00
2018-05-25T08:18:38.124Z,13556.00
2018-05-25T08:19:38.251Z,13732.00
2018-05-25T08:20:38.470Z,13680.00
2018-05-25T08:21:38.607Z,13004.00
2018-05-25T08:22:38.813Z,12800.00
2018-05-25T08:23:38.981Z,12676.00
2018-05-25T08:24:39.102Z,12852.00
2018-05-25T08:25:39.319Z,13164.00
2018-05-25T08:26:39.452Z,13684.00
2018-05-25T08:27:39.738Z,14076.00
2018-05-25T08:28:39.854Z,14464.00
2018-05-25T08:29:39.974Z,14688.00
2018-05-25T08:30:40.255Z,15392.00
2018-05-25T08:31:40.375Z,15616.00
2018-05-25T08:32:40.530Z,15744.00
2018-05-25T08:33:40.662Z,15744.00
2018-05-25T08:34:40.910Z,14612.00
2018-05-25T08:35:41.077Z,14244.00
2018-05-25T08:36:41.268Z,13748.00
2018-05-25T08:37:41.436Z,13424.00
2018-05-25T08:38:41.677Z,13232.00
2018-05-25T08:39:41.751Z,13348.00
2018-05-25T08:40:41.955Z,13688.00
2018-05-25T08:41:42.083Z,13584.00
2018-05-25T08:42:42.284Z,13224.00
2018-05-25T08:43:42.411Z,12548.00
2018-05-25T08:44:42.630Z,12504.00
2018-05-25T08:45:42.721Z,13012.00
2018-05-25T08:46:42.940Z,13780.00
2018-05-25T08:47:43.136Z,14380.00
2018-05-25T08:48:43.215Z,14704.00
2018-05-25T08:49:43.419Z,14268.00
2018-05-25T08:50:43.618Z,13720.00
2018-05-25T08:51:43.780Z,13060.00
2018-05-25T08:52:43.991Z,12520.00
2018-05-25T08:53:44.148Z,12304.00
2018-05-25T08:54:44.259Z,12408.00
2018-05-25T08:55:44.456Z,12792.00
2018-05-25T08:56:44.593Z,13588.00
2018-05-25T08:57:44.812Z,15552.00
2018-05-25T08:58:44.905Z,17824.00
2018-05-25T08:59:45.147Z,19232.00
2018-05-25T09:00:45.267Z,19392.00
2018-05-25T09:01:45.416Z,18624.00
2018-05-25T09:02:45.679Z,17888.00
2018-05-25T09:03:45.800Z,17344.00
2018-05-25T09:04:45.979Z,17696.00
2018-05-25T09:05:46.146Z,17792.00
2018-05-25T09:06:46.283Z,17984.00
2018-05-25T09:07:46.489Z,17952.00
2018-05-25T09:08:46.571Z,17920.00
2018-05-25T09:09:46.811Z,17280.00
2018-05-25T09:10:46.951Z,17056.00
2018-05-25T09:11:47.096Z,16992.00
2018-05-25T09:12:47.278Z,16416.00
2018-05-25T09:13:47.472Z,15520.00
2018-05-25T09:14:47.663Z,14372.00
2018-05-25T09:15:47.769Z,16096.00
2018-05-25T09:16:48.027Z,16800.00
2018-05-25T09:17:48.095Z,17440.00
2018-05-25T09:18:48.304Z,17536.00
2018-05-25T09:19:48.501Z,16416.00
2018-05-25T09:20:48.718Z,14792.00
2018-05-25T09:21:48.884Z,13432.00
2018-05-25T09:22:49.070Z,12408.00
2018-05-25T09:23:49.205Z,11808.00
2018-05-25T09:24:49.284Z,11024.00
2018-05-25T09:25:49.468Z,11156.00
2018-05-25T09:26:49.681Z,11692.00
2018-05-25T09:27:49.869Z,12356.00
2018-05-25T09:28:50.102Z,12556.00
2018-05-25T09:29:50.209Z,13216.00
2018-05-25T09:30:50.436Z,14340.00
2018-05-25T09:31:50.565Z,14748.00
2018-05-25T09:32:50.728Z,16000.00
2018-05-25T09:33:50.853Z,15424.00
2018-05-25T09:34:51.070Z,14484.00
2018-05-25T09:35:51.188Z,14200.00
2018-05-25T09:36:51.332Z,14092.00
2018-05-25T09:37:51.591Z,14040.00
2018-05-25T09:38:51.771Z,13908.00
2018-05-25T09:39:51.936Z,13468.00
2018-05-25T09:40:52.093Z,12856.00
2018-05-25T09:41:52.240Z,12200.00
2018-05-25T09:42:52.377Z,11580.00
2018-05-25T09:43:52.643Z,11208.00
2018-05-25T09:44:52.742Z,10868.00
2018-05-25T09:45:53.081Z,10324.00
2018-05-25T09:46:53.115Z,9704.00
2018-05-25T09:47:53.269Z,9268.00
2018-05-25T09:48:53.546Z,9092.00
2018-05-25T09:49:53.711Z,9088.00
2018-05-25T09:50:53.815Z,9216.00
2018-05-25T09:51:53.961Z,9416.00
2018-05-25T09:52:54.215Z,9844.00
2018-05-25T09:53:54.299Z,10372.00
2018-05-25T09:54:54.468Z,11200.00
2018-05-25T09:55:54.660Z,12284.00
2018-05-25T09:56:54.807Z,13640.00
2018-05-25T09:57:55.043Z,21632.00
2018-05-25T09:58:55.139Z,23936.00
2018-05-25T09:59:55.299Z,28640.00
2018-05-25T10:00:55.513Z,32768.00
2018-05-25T10:01:55.667Z,30208.00
2018-05-25T10:02:55.882Z,15744.00
2018-05-25T10:03:55.998Z,17248.00
2018-05-25T10:04:56.193Z,33440.00
2018-05-25T10:05:56.298Z,40768.00
2018-05-25T10:06:56.519Z,40928.00
2018-05-25T10:07:56.728Z,43712.00
2018-05-25T10:08:56.859Z,44416.00
2018-05-25T10:09:56.954Z,44960.00
2018-05-25T10:10:57.141Z,47328.00
2018-05-25T10:11:57.378Z,45536.00
2018-05-25T10:12:57.540Z,45760.00
2018-05-25T10:13:57.677Z,43072.00
2018-05-25T10:14:57.851Z,28224.00
2018-05-25T10:15:58.043Z,45248.00
2018-05-25T10:16:58.155Z,22688.00
2018-05-25T10:17:58.406Z,45120.00
2018-05-25T10:18:58.491Z,20256.00
2018-05-25T10:19:58.732Z,20640.00
2018-05-25T10:20:58.931Z,46144.00
2018-05-25T10:21:59.037Z,46496.00
2018-05-25T10:22:59.291Z,46336.00
2018-05-25T10:23:59.361Z,33056.00
2018-05-25T10:24:59.567Z,46432.00
2018-05-25T10:25:59.747Z,26272.00
2018-05-25T10:26:59.975Z,28192.00
2018-05-25T10:28:00.142Z,30656.00
2018-05-25T10:29:00.316Z,25344.00
2018-05-25T10:30:00.445Z,37312.00
2018-05-25T10:31:00.631Z,45664.00
2018-05-25T10:32:00.839Z,33728.00
2018-05-25T10:33:01.037Z,40288.00
2018-05-25T10:34:01.097Z,51424.00
2018-05-25T10:35:01.339Z,48928.00
2018-05-25T10:36:01.516Z,38112.00
2018-05-25T10:37:01.625Z,48928.00
2018-05-25T10:38:01.890Z,49216.00
2018-05-25T10:39:02.007Z,51008.00
2018-05-25T10:40:02.141Z,31200.00
2018-05-25T10:41:02.329Z,44416.00
2018-05-25T10:42:02.538Z,37792.00
2018-05-25T10:43:02.648Z,36480.00
2018-05-25T10:44:02.827Z,39488.00
2018-05-25T10:45:02.952Z,42816.00
2018-05-25T10:46:03.128Z,42592.00
2018-05-25T10:47:03.376Z,45984.00
2018-05-25T10:48:03.516Z,47392.00
2018-05-25T10:49:03.695Z,50112.00
2018-05-25T10:50:03.856Z,52128.00
2018-05-25T10:51:04.031Z,53056.00
2018-05-25T10:52:04.207Z,54464.00
2018-05-25T10:53:04.439Z,53792.00
2018-05-25T10:54:04.583Z,55232.00
2018-05-25T10:55:04.780Z,57216.00
2018-05-25T10:56:04.946Z,58816.00
2018-05-25T10:57:05.181Z,57984.00
2018-05-25T10:58:05.282Z,56800.00
2018-05-25T10:59:05.465Z,56224.00
2018-05-25T11:00:05.650Z,56672.00
2018-05-25T11:01:05.801Z,59360.00
2018-05-25T11:02:05.941Z,60160.00
2018-05-25T11:03:06.081Z,61984.00
2018-05-25T11:04:06.289Z,64608.00
2018-05-25T11:05:06.494Z,65024.00
2018-05-25T11:06:06.630Z,63328.00
2018-05-25T11:07:06.836Z,62592.00
2018-05-25T11:08:07.000Z,64640.00
2018-05-25T11:09:07.141Z,65920.00
2018-05-25T11:10:07.278Z,66976.00
2018-05-25T11:11:07.482Z,66368.00
2018-05-25T11:12:07.667Z,66592.00
2018-05-25T11:13:07.826Z,65152.00
2018-05-25T11:14:08.044Z,63968.00
2018-05-25T11:15:08.174Z,53248.00
2018-05-25T11:16:08.300Z,41088.00
2018-05-25T11:17:08.504Z,38400.00
2018-05-25T11:18:08.677Z,38720.00
2018-05-25T11:19:08.856Z,36832.00
2018-05-25T11:20:09.005Z,34272.00
2018-05-25T11:21:09.176Z,34016.00
2018-05-25T11:22:09.399Z,40288.00
2018-05-25T11:23:09.544Z,45408.00
2018-05-25T11:24:09.704Z,53664.00
2018-05-25T11:25:09.893Z,62048.00
2018-05-25T11:26:10.104Z,56352.00
2018-05-25T11:27:10.334Z,46304.00
2018-05-25T11:28:10.460Z,41152.00
2018-05-25T11:29:10.583Z,37504.00
2018-05-25T11:30:10.768Z,39968.00
2018-05-25T11:31:11.005Z,36224.00
2018-05-25T11:32:11.205Z,36544.00
2018-05-25T11:33:11.295Z,36256.00
2018-05-25T11:34:11.498Z,51872.00
2018-05-25T11:35:11.646Z,48704.00
2018-05-25T11:36:11.871Z,39264.00
2018-05-25T11:37:11.970Z,42592.00
2018-05-25T11:38:12.166Z,39392.00
2018-05-25T11:39:12.393Z,36736.00
2018-05-25T11:40:12.579Z,45600.00
2018-05-25T11:41:12.679Z,49216.00
2018-05-25T11:42:12.936Z,70880.00
2018-05-25T11:43:13.037Z,72384.00
2018-05-25T11:44:13.249Z,71296.00
2018-05-25T11:45:13.441Z,67296.00
2018-05-25T11:46:13.655Z,69120.00
2018-05-25T11:47:13.785Z,64256.00
2018-05-25T11:48:13.958Z,33056.00
2018-05-25T11:49:14.167Z,73248.00
2018-05-25T11:50:14.324Z,68128.00
2018-05-25T11:51:14.534Z,70336.00
2018-05-25T11:52:14.637Z,70880.00
2018-05-25T11:53:14.829Z,58464.00
2018-05-25T11:54:15.015Z,48192.00
2018-05-25T11:55:15.126Z,67744.00
2018-05-25T11:56:15.325Z,68480.00
2018-05-25T11:57:15.506Z,70368.00
2018-05-25T11:58:15.707Z,71552.00
2018-05-25T11:59:15.847Z,71328.00
2018-05-25T12:00:16.006Z,30208.00
2018-05-25T12:01:16.173Z,41920.00
2018-05-25T12:02:16.378Z,66208.00
2018-05-25T12:03:16.633Z,27808.00
2018-05-25T12:04:16.774Z,65920.00
2018-05-25T12:05:16.965Z,73248.00
2018-05-25T12:06:17.117Z,74016.00
2018-05-25T12:07:17.294Z,70944.00
2018-05-25T12:08:17.508Z,60032.00
2018-05-25T12:09:17.687Z,52480.00
2018-05-25T12:10:17.802Z,70336.00
2018-05-25T12:11:18.031Z,65728.00
2018-05-25T12:12:18.180Z,70656.00
2018-05-25T12:13:18.348Z,70848.00
2018-05-25T12:14:18.506Z,73120.00
2018-05-25T12:15:18.681Z,72800.00
2018-05-25T12:16:18.889Z,70240.00
2018-05-25T12:17:19.032Z,68224.00
2018-05-25T12:18:19.236Z,70816.00
2018-05-25T12:19:19.384Z,71776.00
2018-05-25T12:20:19.589Z,72000.00
2018-05-25T12:21:19.745Z,73088.00
2018-05-25T12:22:19.890Z,72448.00
2018-05-25T12:23:20.051Z,71104.00
2018-05-25T12:24:20.316Z,68032.00
2018-05-25T12:25:20.430Z,69408.00
2018-05-25T12:26:20.691Z,71680.00
2018-05-25T12:27:20.787Z,71840.00
2018-05-25T12:28:20.999Z,70400.00
2018-05-25T12:29:21.105Z,75488.00
2018-05-25T12:30:21.407Z,73856.00
2018-05-25T12:31:21.527Z,64864.00
2018-05-25T12:32:21.654Z,68256.00
2018-05-25T12:33:21.861Z,83232.00
2018-05-25T12:34:21.999Z,78720.00
2018-05-25T12:35:22.244Z,60192.00
2018-05-25T12:36:22.383Z,58848.00
2018-05-25T12:37:22.583Z,72864.00
2018-05-25T12:38:22.744Z,70016.00
2018-05-25T12:39:22.964Z,55040.00
2018-05-25T12:40:23.121Z,50464.00
2018-05-25T12:41:23.336Z,40288.00
2018-05-25T12:42:23.474Z,38848.00
2018-05-25T12:43:23.694Z,49792.00
2018-05-25T12:44:23.869Z,66112.00
2018-05-25T12:45:24.080Z,75104.00
2018-05-25T12:46:24.308Z,76800.00
2018-05-25T12:47:24.453Z,25920.00
2018-05-25T12:48:24.674Z,22432.00
2018-05-25T12:49:24.788Z,21024.00
2018-05-25T12:50:25.007Z,22144.00
2018-05-25T12:51:25.205Z,22496.00
2018-05-25T12:52:25.333Z,35488.00
2018-05-25T12:53:25.552Z,50592.00
2018-05-25T12:54:25.720Z,28704.00
2018-05-25T12:55:25.892Z,52160.00
2018-05-25T12:56:26.100Z,75232.00
2018-05-25T12:57:26.267Z,73312.00
2018-05-25T12:58:26.466Z,74336.00
2018-05-25T12:59:26.634Z,74592.00
2018-05-25T13:00:26.893Z,26272.00
2018-05-25T13:01:27.016Z,25440.00
2018-05-25T13:02:27.179Z,66656.00
2018-05-25T13:03:27.378Z,70592.00
2018-05-25T13:04:27.520Z,72832.00
2018-05-25T13:05:27.792Z,77376.00
2018-05-25T13:06:27.916Z,75808.00
2018-05-25T13:07:28.089Z,71424.00
2018-05-25T13:08:28.297Z,69152.00
2018-05-25T13:09:28.512Z,67936.00
2018-05-25T13:10:28.652Z,71296.00
2018-05-25T13:11:28.823Z,74624.00
2018-05-25T13:12:29.071Z,74880.00
2018-05-25T13:13:29.303Z,78720.00
2018-05-25T13:14:29.472Z,76128.00
2018-05-25T13:15:29.733Z,73696.00
2018-05-25T13:16:29.825Z,75072.00
2018-05-25T13:17:30.080Z,74912.00
2018-05-25T13:18:30.161Z,73984.00
2018-05-25T13:19:30.302Z,73152.00
2018-05-25T13:20:30.483Z,72480.00
2018-05-25T13:21:30.690Z,70112.00
2018-05-25T13:22:30.827Z,69792.00
2018-05-25T13:23:31.013Z,71744.00
2018-05-25T13:24:31.240Z,70112.00
2018-05-25T13:25:31.424Z,70112.00
2018-05-25T13:26:31.621Z,70464.00
2018-05-25T13:27:31.804Z,67840.00
2018-05-25T13:28:32.009Z,71104.00
2018-05-25T13:29:32.157Z,68640.00
2018-05-25T13:30:32.292Z,67584.00
2018-05-25T13:31:32.521Z,70976.00
2018-05-25T13:32:32.735Z,73280.00
2018-05-25T13:33:32.886Z,72224.00
2018-05-25T13:34:33.013Z,70368.00
2018-05-25T13:35:33.244Z,69984.00
2018-05-25T13:36:33.333Z,72096.00
2018-05-25T13:37:33.521Z,71872.00
2018-05-25T13:38:33.718Z,69408.00
2018-05-25T13:39:33.932Z,67840.00
2018-05-25T13:40:34.072Z,67296.00
2018-05-25T13:41:34.268Z,66240.00
2018-05-25T13:42:34.466Z,68416.00
2018-05-25T13:43:34.641Z,71392.00
2018-05-25T13:44:34.785Z,74112.00
2018-05-25T13:45:35.014Z,72192.00
2018-05-25T13:46:35.203Z,71808.00
2018-05-25T13:47:35.328Z,74080.00
2018-05-25T13:48:35.519Z,73088.00
2018-05-25T13:49:35.709Z,64224.00
2018-05-25T13:50:35.885Z,66176.00
2018-05-25T13:51:36.075Z,64992.00
2018-05-25T13:52:36.299Z,69536.00
2018-05-25T13:53:36.429Z,71968.00
2018-05-25T13:54:36.609Z,72544.00
2018-05-25T13:55:36.806Z,29792.00
2018-05-25T13:56:37.000Z,67392.00
2018-05-25T13:57:37.167Z,59872.00
2018-05-25T13:58:37.381Z,19136.00
2018-05-25T13:59:37.552Z,19680.00
2018-05-25T14:00:37.703Z,74176.00
2018-05-25T14:01:37.849Z,67040.00
2018-05-25T14:02:38.041Z,61632.00
2018-05-25T14:03:38.316Z,60608.00
2018-05-25T14:04:38.468Z,68672.00
2018-05-25T14:05:38.698Z,76352.00
2018-05-25T14:06:38.831Z,78048.00
2018-05-25T14:07:38.940Z,70400.00
2018-05-25T14:08:39.208Z,66688.00
2018-05-25T14:09:39.361Z,63968.00
2018-05-25T14:10:39.552Z,62656.00
2018-05-25T14:11:39.696Z,64928.00
2018-05-25T14:12:39.882Z,68352.00
2018-05-25T14:13:39.995Z,67840.00
2018-05-25T14:14:40.229Z,67904.00
2018-05-25T14:15:40.446Z,63296.00
2018-05-25T14:16:40.572Z,49792.00
2018-05-25T14:17:40.702Z,59648.00
2018-05-25T14:18:40.947Z,60160.00
2018-05-25T14:19:41.059Z,56960.00
2018-05-25T14:20:41.221Z,65184.00
2018-05-25T14:21:41.464Z,62944.00
2018-05-25T14:22:41.595Z,62336.00
2018-05-25T14:23:41.743Z,62496.00
2018-05-25T14:24:41.915Z,63520.00
2018-05-25T14:25:42.176Z,56672.00
2018-05-25T14:26:42.336Z,14080.00
2018-05-25T14:27:42.469Z,11544.00
2018-05-25T14:28:42.654Z,10860.00
2018-05-25T14:29:42.791Z,10152.00
2018-05-25T14:30:43.085Z,9980.00
2018-05-25T14:31:43.173Z,14116.00
2018-05-25T14:32:43.351Z,26784.00
2018-05-25T14:33:43.510Z,21312.00
2018-05-25T14:34:43.746Z,50944.00
2018-05-25T14:35:43.904Z,38496.00
2018-05-25T14:36:44.081Z,26400.00
2018-05-25T14:37:44.208Z,54720.00
2018-05-25T14:38:44.448Z,58208.00
2018-05-25T14:39:44.608Z,58016.00
2018-05-25T14:40:44.818Z,56832.00
2018-05-25T14:41:44.908Z,56256.00
2018-05-25T14:42:45.131Z,57088.00
2018-05-25T14:43:45.302Z,54176.00
2018-05-25T14:44:45.451Z,51456.00
2018-05-25T14:45:45.659Z,48800.00
2018-05-25T14:46:45.778Z,38464.00
2018-05-25T14:47:45.995Z,13452.00
2018-05-25T14:48:46.169Z,21056.00
2018-05-25T14:49:46.342Z,8028.00
2018-05-25T14:50:46.562Z,5876.00
2018-05-25T14:51:46.795Z,4696.00
2018-05-25T14:52:46.897Z,4152.00
2018-05-25T14:53:47.001Z,4416.00
2018-05-25T14:54:47.178Z,3528.00
2018-05-25T14:55:47.432Z,3364.00
2018-05-25T14:56:47.565Z,3212.00
2018-05-25T14:57:47.809Z,3072.00
2018-05-25T14:58:47.955Z,3012.00
2018-05-25T14:59:48.171Z,2904.00
2018-05-25T15:00:48.283Z,2796.00
2018-05-25T15:01:48.497Z,2792.00
2018-05-25T15:02:48.685Z,2800.00
2018-05-25T15:03:48.864Z,2764.00
2018-05-25T15:04:48.968Z,2784.00